No particular awareness of the weather is required.    There are no Weather-warnings


Meteo18 Weather Cam more information Meteo18 Weather Cam


Thunder radar more information blitzortung!


Rain radar more information rain snow radar


Visit our other weather sites:

Template documentation
and downloads

And another site



Weather Underground History page Text

Daily Summary for February 3, 2016 Units:  Metric    English   Both
« Previous Day
Next Day »
Daily Weekly Monthly Yearly Custom
  High: Low: Average:
Temperature: 7.8 °C 4.4 °C 5.9 °C
Dew Point: 7.0 °C 1.3 °C 3.7 °C
Humidity: 98 % 68 % 86 %
Wind Speed: 9.7 km/h 0.0 km/h 1.2 km/h
Wind Gust: 22.5 km/h - -
Wind:- - SE
Pressure: 1032.4 hPa 1021.6 hPa -
Precipitation: 2.3 mm    
Historical Graphs
 
 
Tabular Data for February 3, 2016
Time Temperature Dew Point Pressure Wind Wind Speed Wind Gust Humidity Rainfall Rate (Hourly)
00:04 7.4 °C 7.0 °C 1022.6 hPa Calm   1.6 km/h 97 % 1.3 mm
00:12 7.3 °C 6.9 °C 1022.6 hPa Calm     97 % 1.0 mm
00:17 7.3 °C 6.9 °C 1022.6 hPa Calm     97 % 1.0 mm
00:27 7.3 °C 6.9 °C 1022.9 hPa Calm     97 % 1.0 mm
00:32 7.2 °C 6.8 °C 1022.9 hPa Calm     97 % 0.8 mm
00:37 7.2 °C 6.8 °C 1022.6 hPa Calm     97 % 0.8 mm
00:47 7.2 °C 6.8 °C 1022.9 hPa Calm     97 % 0.3 mm
01:07 7.2 °C 6.8 °C 1022.9 hPa Calm     97 % 0.0 mm
01:14 7.2 °C 6.8 °C 1022.9 hPa Calm     97 % 0.0 mm
01:22 6.9 °C 6.5 °C 1022.6 hPa Calm     97 % 0.0 mm
01:32 6.5 °C 6.1 °C 1022.2 hPa Calm     97 % 0.0 mm
01:42 6.2 °C 5.8 °C 1022.6 hPa Calm     97 % 0.0 mm
01:47 6.0 °C 5.6 °C 1022.6 hPa Calm     97 % 0.0 mm
01:57 5.5 °C 5.1 °C 1022.2 hPa Calm     97 % 0.0 mm
02:02 5.4 °C 5.0 °C 1022.2 hPa Calm     97 % 0.0 mm
02:07 5.2 °C 4.8 °C 1022.2 hPa Calm     97 % 0.0 mm
02:17 4.7 °C 4.3 °C 1022.2 hPa Calm     97 % 0.0 mm
02:22 4.5 °C 4.1 °C 1022.2 hPa Calm     97 % 0.0 mm
02:27 4.4 °C 4.0 °C 1022.2 hPa Calm     97 % 0.0 mm
02:39 4.5 °C 4.2 °C 1022.6 hPa Calm     98 % 0.0 mm
02:47 5.0 °C 4.7 °C 1022.6 hPa ENE 1.6 km/h 3.2 km/h 98 % 0.0 mm
02:52 5.2 °C 4.9 °C 1022.6 hPa ENE 1.6 km/h 3.2 km/h 98 % 0.0 mm
02:57 5.3 °C 5.0 °C 1022.6 hPa Calm   3.2 km/h 98 % 0.0 mm
03:02 5.3 °C 5.0 °C 1022.6 hPa Calm   3.2 km/h 98 % 0.0 mm
03:12 5.4 °C 5.1 °C 1022.6 hPa Calm   3.2 km/h 98 % 0.0 mm
03:17 5.4 °C 5.0 °C 1022.6 hPa Calm   3.2 km/h 97 % 0.0 mm
03:27 5.3 °C 4.9 °C 1022.2 hPa Calm   3.2 km/h 97 % 0.0 mm
03:37 5.3 °C 4.9 °C 1022.2 hPa Calm   3.2 km/h 97 % 0.0 mm
03:42 5.3 °C 4.9 °C 1022.2 hPa Calm   3.2 km/h 97 % 0.0 mm
03:52 5.1 °C 4.7 °C 1021.9 hPa Calm     97 % 0.0 mm
04:07 4.9 °C 4.5 °C 1021.9 hPa Calm     97 % 0.0 mm
04:17 4.9 °C 4.5 °C 1021.9 hPa Calm     97 % 0.0 mm
04:27 5.2 °C 4.9 °C 1021.9 hPa Calm     98 % 0.0 mm
04:32 5.3 °C 5.0 °C 1021.9 hPa Calm   1.6 km/h 98 % 0.0 mm
04:37 5.3 °C 5.0 °C 1021.9 hPa Calm   1.6 km/h 98 % 0.0 mm
04:49 5.4 °C 5.1 °C 1021.6 hPa Calm   1.6 km/h 98 % 0.0 mm
04:57 5.5 °C 5.1 °C 1021.6 hPa Calm   1.6 km/h 97 % 0.0 mm
05:02 5.5 °C 5.1 °C 1021.6 hPa Calm   1.6 km/h 97 % 0.0 mm
05:22 5.4 °C 5.0 °C 1021.6 hPa Calm   1.6 km/h 97 % 0.0 mm
05:27 5.5 °C 5.1 °C 1021.6 hPa Calm     97 % 0.0 mm
05:42 5.5 °C 5.1 °C 1021.6 hPa Calm   1.6 km/h 97 % 0.3 mm
05:52 5.6 °C 5.2 °C 1021.9 hPa Calm   1.6 km/h 97 % 0.5 mm
05:57 5.6 °C 5.2 °C 1021.9 hPa Calm   1.6 km/h 97 % 0.5 mm
06:02 5.7 °C 5.3 °C 1021.9 hPa Calm   1.6 km/h 97 % 0.5 mm
06:07 5.7 °C 5.3 °C 1021.9 hPa SW 1.6 km/h 3.2 km/h 97 % 0.8 mm
06:14 5.8 °C 5.5 °C 1021.9 hPa SSW 3.2 km/h 3.2 km/h 98 % 1.0 mm
06:22 5.7 °C 5.3 °C 1021.9 hPa Calm   8.0 km/h 97 % 1.5 mm
06:27 5.7 °C 5.1 °C 1021.9 hPa WSW 1.6 km/h 8.0 km/h 96 % 1.5 mm
06:37 5.8 °C 5.2 °C 1021.9 hPa SW 1.6 km/h 4.8 km/h 96 % 1.5 mm
06:42 5.8 °C 5.2 °C 1021.9 hPa WSW 1.6 km/h 4.8 km/h 96 % 1.5 mm
06:52 5.8 °C 5.1 °C 1021.9 hPa Calm   6.4 km/h 95 % 1.5 mm
06:57 5.7 °C 5.0 °C 1021.9 hPa Calm   6.4 km/h 95 % 1.3 mm
07:02 5.7 °C 4.8 °C 1021.9 hPa Calm   6.4 km/h 94 % 1.0 mm
07:12 5.7 °C 5.0 °C 1021.9 hPa Calm   6.4 km/h 95 % 0.5 mm
07:22 5.6 °C 4.9 °C 1022.2 hPa Calm   4.8 km/h 95 % 0.5 mm
07:32 5.7 °C 5.0 °C 1022.2 hPa Calm   4.8 km/h 95 % 0.3 mm
07:42 5.7 °C 5.0 °C 1022.2 hPa Calm   4.8 km/h 95 % 0.0 mm
07:47 5.7 °C 5.0 °C 1022.2 hPa Calm   4.8 km/h 95 % 0.0 mm
07:57 5.7 °C 5.0 °C 1022.6 hPa WSW 3.2 km/h 4.8 km/h 95 % 0.0 mm
08:02 5.7 °C 4.8 °C 1022.6 hPa SSW 1.6 km/h 4.8 km/h 94 % 0.0 mm
08:12 5.6 °C 4.7 °C 1022.6 hPa SW 1.6 km/h 3.2 km/h 94 % 0.0 mm
08:22 5.7 °C 4.7 °C 1022.9 hPa ESE 1.6 km/h 6.4 km/h 93 % 0.0 mm
08:27 5.7 °C 4.7 °C 1022.9 hPa Calm   6.4 km/h 93 % 0.0 mm
08:37 5.6 °C 4.6 °C 1022.9 hPa Calm   4.8 km/h 93 % 0.0 mm
08:42 5.5 °C 4.5 °C 1022.9 hPa Calm   4.8 km/h 93 % 0.0 mm
08:47 5.5 °C 4.5 °C 1023.2 hPa Calm   8.0 km/h 93 % 0.0 mm
08:52 5.4 °C 4.2 °C 1023.2 hPa ENE 1.6 km/h 8.0 km/h 92 % 0.0 mm
08:57 5.4 °C 4.2 °C 1023.2 hPa WSW 3.2 km/h 11.3 km/h 92 % 0.0 mm
09:07 5.3 °C 4.3 °C 1023.2 hPa Calm   11.3 km/h 93 % 0.0 mm
09:22 5.5 °C 4.3 °C 1023.2 hPa Calm   3.2 km/h 92 % 0.0 mm
09:32 5.7 °C 4.7 °C 1023.6 hPa Calm   4.8 km/h 93 % 0.0 mm
09:37 5.9 °C 4.9 °C 1023.9 hPa SW 3.2 km/h 4.8 km/h 93 % 0.0 mm
09:42 6.0 °C 4.6 °C 1023.9 hPa Calm   4.8 km/h 91 % 0.0 mm
09:52 6.0 °C 4.5 °C 1023.9 hPa WSW 4.8 km/h 11.3 km/h 90 % 0.0 mm
09:57 6.0 °C 4.5 °C 1024.3 hPa SW 4.8 km/h 11.3 km/h 90 % 0.0 mm
10:12 6.1 °C 4.6 °C 1024.3 hPa Calm   11.3 km/h 90 % 0.0 mm
10:27 6.1 °C 4.4 °C 1024.3 hPa Calm   9.7 km/h 89 % 0.0 mm
10:32 6.1 °C 4.4 °C 1024.3 hPa NE 1.6 km/h 9.7 km/h 89 % 0.0 mm
10:37 6.1 °C 4.6 °C 1024.3 hPa SSE 1.6 km/h 9.7 km/h 90 % 0.0 mm
10:47 6.7 °C 4.9 °C 1024.6 hPa ENE 1.6 km/h 12.9 km/h 88 % 0.0 mm
10:57 6.4 °C 4.4 °C 1024.9 hPa East 3.2 km/h 14.5 km/h 87 % 0.0 mm
11:02 6.3 °C 4.3 °C 1024.9 hPa Calm   14.5 km/h 87 % 0.0 mm
11:07 6.5 °C 4.7 °C 1024.9 hPa East 1.6 km/h 9.7 km/h 88 % 0.0 mm
11:13 6.7 °C 4.5 °C 1025.3 hPa NE 8.0 km/h 9.7 km/h 86 % 0.0 mm
11:22 6.6 °C 4.4 °C 1025.3 hPa ENE 3.2 km/h 14.5 km/h 86 % 0.0 mm
11:32 7.1 °C 4.7 °C 1025.6 hPa ENE 9.7 km/h 14.5 km/h 85 % 0.0 mm
11:37 7.1 °C 4.4 °C 1025.6 hPa NE 1.6 km/h 14.5 km/h 83 % 0.0 mm
11:47 7.4 °C 4.9 °C 1025.6 hPa Calm   14.5 km/h 84 % 0.0 mm
11:57 7.8 °C 4.6 °C 1026.0 hPa East 3.2 km/h 9.7 km/h 80 % 0.0 mm
12:02 7.6 °C 4.0 °C 1026.0 hPa East 3.2 km/h 19.3 km/h 78 % 0.0 mm
12:07 7.5 °C 3.5 °C 1026.0 hPa ESE 3.2 km/h 19.3 km/h 76 % 0.0 mm
12:17 7.1 °C 3.3 °C 1026.0 hPa Calm   20.9 km/h 77 % 0.0 mm
12:27 7.4 °C 3.8 °C 1026.0 hPa SE 3.2 km/h 17.7 km/h 78 % 0.0 mm
12:37 7.3 °C 3.7 °C 1026.0 hPa East 1.6 km/h 17.7 km/h 78 % 0.0 mm
12:42 7.2 °C 3.8 °C 1026.3 hPa NE 6.4 km/h 16.1 km/h 79 % 0.0 mm
12:52 6.5 °C 4.0 °C 1026.3 hPa NE 3.2 km/h 17.7 km/h 84 % 0.3 mm
12:59 6.5 °C 4.2 °C 1026.3 hPa Calm   12.9 km/h 85 % 0.3 mm
13:07 6.8 °C 3.9 °C 1026.3 hPa Calm   11.3 km/h 82 % 0.3 mm
13:17 7.3 °C 4.1 °C 1026.3 hPa Calm   17.7 km/h 80 % 0.3 mm
13:22 7.5 °C 3.7 °C 1026.3 hPa East 3.2 km/h 9.7 km/h 77 % 0.3 mm
13:32 6.8 °C 2.1 °C 1026.3 hPa SE 1.6 km/h 14.5 km/h 72 % 0.3 mm
13:42 7.1 °C 3.0 °C 1026.3 hPa East 6.4 km/h 14.5 km/h 75 % 0.3 mm
13:47 7.1 °C 2.6 °C 1026.3 hPa SE 1.6 km/h 14.5 km/h 73 % 0.0 mm
13:52 6.9 °C 2.2 °C 1026.6 hPa NE 3.2 km/h 14.5 km/h 72 % 0.0 mm
13:57 7.1 °C 3.0 °C 1026.3 hPa ESE 1.6 km/h 14.5 km/h 75 % 0.0 mm
14:07 7.4 °C 2.9 °C 1026.6 hPa NNE 9.7 km/h 12.9 km/h 73 % 0.0 mm
14:12 7.2 °C 2.9 °C 1026.6 hPa Calm   12.9 km/h 74 % 0.0 mm
14:17 7.1 °C 2.8 °C 1026.3 hPa South 1.6 km/h 12.9 km/h 74 % 0.0 mm
14:27 6.6 °C 2.1 °C 1026.3 hPa East 1.6 km/h 12.9 km/h 73 % 0.0 mm
14:32 6.4 °C 2.1 °C 1026.3 hPa NNE 3.2 km/h 12.9 km/h 74 % 0.0 mm
14:37 6.4 °C 2.5 °C 1026.3 hPa ENE 3.2 km/h 12.9 km/h 76 % 0.0 mm
14:42 6.4 °C 2.7 °C 1026.3 hPa South 4.8 km/h 9.7 km/h 77 % 0.0 mm
14:52 6.4 °C 3.0 °C 1026.6 hPa NE 3.2 km/h 14.5 km/h 79 % 0.0 mm
14:57 6.3 °C 2.9 °C 1026.6 hPa NE 3.2 km/h 16.1 km/h 79 % 0.3 mm
15:02 6.2 °C 2.5 °C 1026.6 hPa ENE 3.2 km/h 19.3 km/h 77 % 0.3 mm
15:14 6.6 °C 2.3 °C 1026.6 hPa East 1.6 km/h 19.3 km/h 74 % 0.3 mm
15:32 6.2 °C 1.5 °C 1027.0 hPa NE 1.6 km/h 22.5 km/h 72 % 0.3 mm
15:42 6.4 °C 1.9 °C 1027.0 hPa NNE 1.6 km/h 12.9 km/h 73 % 0.3 mm
15:52 6.4 °C 1.3 °C 1027.0 hPa South 1.6 km/h 12.9 km/h 70 % 0.3 mm
16:02 6.5 °C 1.4 °C 1027.3 hPa NE 4.8 km/h 11.3 km/h 70 % 0.0 mm
16:12 6.8 °C 1.7 °C 1027.3 hPa ENE 3.2 km/h 16.1 km/h 70 % 0.0 mm
16:19 7.0 °C 2.1 °C 1027.3 hPa East 6.4 km/h 16.1 km/h 71 % 0.0 mm
16:27 7.1 °C 1.8 °C 1027.3 hPa East 4.8 km/h 14.5 km/h 69 % 0.0 mm
16:37 7.0 °C 1.7 °C 1027.7 hPa ENE 1.6 km/h 12.9 km/h 69 % 0.0 mm
16:42 6.9 °C 1.4 °C 1027.7 hPa Calm   12.9 km/h 68 % 0.0 mm
16:52 6.8 °C 1.5 °C 1027.7 hPa Calm   16.1 km/h 69 % 0.0 mm
17:02 6.8 °C 1.9 °C 1027.7 hPa Calm   11.3 km/h 71 % 0.0 mm
17:07 6.6 °C 1.7 °C 1027.7 hPa SE 1.6 km/h 6.4 km/h 71 % 0.0 mm
17:12 6.5 °C 1.8 °C 1027.7 hPa NNW 1.6 km/h 9.7 km/h 72 % 0.0 mm
17:22 6.2 °C 1.9 °C 1028.0 hPa Calm   12.9 km/h 74 % 0.0 mm
17:27 6.1 °C 1.6 °C 1028.0 hPa Calm   12.9 km/h 73 % 0.0 mm
17:37 5.9 °C 1.8 °C 1028.3 hPa WSW 1.6 km/h 8.0 km/h 75 % 0.0 mm
17:47 5.7 °C 1.8 °C 1028.3 hPa Calm   8.0 km/h 76 % 0.0 mm
17:57 5.7 °C 1.6 °C 1028.3 hPa Calm   14.5 km/h 75 % 0.0 mm
18:07 5.4 °C 1.5 °C 1028.7 hPa Calm   14.5 km/h 76 % 0.0 mm
18:17 5.5 °C 1.6 °C 1029.0 hPa SW 1.6 km/h 11.3 km/h 76 % 0.0 mm
18:22 5.4 °C 1.7 °C 1029.0 hPa SW 1.6 km/h 11.3 km/h 77 % 0.0 mm
18:27 5.3 °C 1.6 °C 1029.0 hPa ESE 1.6 km/h 11.3 km/h 77 % 0.0 mm
18:37 5.4 °C 1.5 °C 1029.3 hPa Calm   9.7 km/h 76 % 0.0 mm
18:47 5.3 °C 1.6 °C 1029.3 hPa Calm   8.0 km/h 77 % 0.0 mm
18:52 5.1 °C 1.4 °C 1029.3 hPa Calm   8.0 km/h 77 % 0.0 mm
19:02 5.1 °C 1.6 °C 1029.7 hPa Calm   6.4 km/h 78 % 0.0 mm
19:07 5.1 °C 1.4 °C 1029.7 hPa SSW 4.8 km/h 6.4 km/h 77 % 0.0 mm
19:17 5.1 °C 1.4 °C 1029.7 hPa ENE 1.6 km/h 9.7 km/h 77 % 0.0 mm
19:32 5.2 °C 1.7 °C 1030.0 hPa Calm   14.5 km/h 78 % 0.0 mm
19:47 5.1 °C 1.8 °C 1030.4 hPa SW 1.6 km/h 9.7 km/h 79 % 0.0 mm
19:52 5.0 °C 1.7 °C 1030.4 hPa SW 1.6 km/h 9.7 km/h 79 % 0.0 mm
20:02 4.9 °C 1.7 °C 1030.4 hPa SW 4.8 km/h 6.4 km/h 80 % 0.0 mm
20:07 4.9 °C 1.7 °C 1030.4 hPa SW 3.2 km/h 8.0 km/h 80 % 0.0 mm
20:22 4.9 °C 1.9 °C 1030.7 hPa SW 3.2 km/h 6.4 km/h 81 % 0.0 mm
20:32 5.2 °C 2.0 °C 1031.0 hPa Calm   6.4 km/h 80 % 0.0 mm
20:42 5.3 °C 2.1 °C 1031.0 hPa Calm   9.7 km/h 80 % 0.0 mm
20:52 5.4 °C 2.2 °C 1031.0 hPa Calm   8.0 km/h 80 % 0.0 mm
21:12 5.5 °C 2.3 °C 1031.0 hPa SW 4.8 km/h 6.4 km/h 80 % 0.0 mm
21:22 5.4 °C 2.2 °C 1031.4 hPa Calm   8.0 km/h 80 % 0.0 mm
21:27 5.3 °C 2.3 °C 1031.4 hPa Calm   8.0 km/h 81 % 0.0 mm
21:37 5.3 °C 2.3 °C 1031.4 hPa Calm   8.0 km/h 81 % 0.0 mm
21:42 5.3 °C 2.5 °C 1031.4 hPa Calm   8.0 km/h 82 % 0.0 mm
21:52 5.1 °C 2.3 °C 1031.4 hPa SW 1.6 km/h 4.8 km/h 82 % 0.0 mm
22:02 4.9 °C 2.3 °C 1031.7 hPa SW 1.6 km/h 4.8 km/h 83 % 0.0 mm
22:07 4.9 °C 2.3 °C 1031.7 hPa Calm   4.8 km/h 83 % 0.0 mm
22:12 4.9 °C 2.3 °C 1031.7 hPa Calm   3.2 km/h 83 % 0.0 mm
22:17 4.9 °C 2.4 °C 1032.1 hPa Calm   3.2 km/h 84 % 0.0 mm
22:27 5.1 °C 2.5 °C 1032.1 hPa WSW 1.6 km/h 8.0 km/h 83 % 0.0 mm
22:37 5.2 °C 2.5 °C 1032.1 hPa Calm   6.4 km/h 83 % 0.0 mm
22:42 5.2 °C 2.5 °C 1032.1 hPa Calm   6.4 km/h 83 % 0.0 mm
22:50 5.2 °C 2.5 °C 1032.1 hPa Calm   6.4 km/h 83 % 0.0 mm
22:57 5.0 °C 2.5 °C 1032.1 hPa East 3.2 km/h 4.8 km/h 84 % 0.0 mm
23:02 4.9 °C 2.4 °C 1032.4 hPa SW 1.6 km/h 4.8 km/h 84 % 0.0 mm
23:12 4.7 °C 2.4 °C 1032.4 hPa Calm   6.4 km/h 85 % 0.0 mm
23:17 4.6 °C 2.3 °C 1032.4 hPa Calm   6.4 km/h 85 % 0.0 mm
23:22 4.6 °C 2.5 °C 1032.4 hPa Calm   6.4 km/h 86 % 0.0 mm
23:32 4.6 °C 2.5 °C 1032.4 hPa Calm   3.2 km/h 86 % 0.0 mm
23:42 4.6 °C 2.5 °C 1032.4 hPa Calm   3.2 km/h 86 % 0.0 mm
23:52 4.6 °C 2.6 °C 1032.4 hPa Calm   3.2 km/h 87 % 0.0 mm
23:57 4.6 °C 2.5 °C 1032.1 hPa Calm   3.2 km/h 86 % 0.0 mm
Meteo18
Compliments of Weather Underground - 4 mb

Script developed by  Jim McMurry - jmcmurry@mwt.net Adapted for the template by  Wim van der Kuil - Leuven-Template.eu

You find our weather info also at:

European Weather Network

Weather Underground

Equipment we use:

Weather-station
Davis Vue

Weather-program
Meteohub

Weather-server
Raspberry PI 2 B+

Provider
1 and 1

Davis Vue

Meteohub

Raspberry PI 2 B+

1 and 1